This is the latest recevied weather packets stored in our database for station/object KL1SF-7. If no packets are shown the sender has not sent any weather packets the latest 1 day(s).
| Time | Temp. | Humidity | Pressure | Rain* | Wind** | Luminosity | Snow |
|---|---|---|---|---|---|---|---|
| 1777998818 | 10° C | 39% | 1012.3 hPa | 0 mm | 0.45 m/s, 257° | - | - |
| 1777998218 | 10° C | 37% | 1012.8 hPa | 0 mm | 0.45 m/s, 195° | - | - |
| 1777997608 | 9.44° C | 39% | 1012.8 hPa | 0 mm | 0.45 m/s, 171° | - | - |
| 1777997026 | 8.33° C | 45% | 1012.8 hPa | 0 mm | 0.45 m/s, 205° | - | - |
| 1777996406 | 8.33° C | 46% | 1012.6 hPa | 0 mm | 0.45 m/s, 215° | - | - |
| 1777995816 | 8.33° C | 46% | 1012.6 hPa | 0 mm | 0.89 m/s, 240° | - | - |
| 1777995216 | 8.33° C | 49% | 1012.6 hPa | 0 mm | 0.89 m/s, 210° | - | - |
| 1777994618 | 8.89° C | 46% | 1012.6 hPa | 0 mm | 0 m/s | - | - |
| 1777994010 | 7.78° C | 49% | 1012.6 hPa | 0 mm | 0.45 m/s, 222° | - | - |
| 1777993423 | 7.22° C | 51% | 1012.7 hPa | 0 mm | 0.45 m/s, 264° | - | - |
| 1777992804 | 6.67° C | 52% | 1012.7 hPa | 0 mm | 0 m/s | - | - |
| 1777992213 | 6.67° C | 53% | 1012.7 hPa | 0 mm | 0 m/s | - | - |
| 1777991629 | 6.11° C | 55% | 1012.6 hPa | 0 mm | 0 m/s | - | - |
| 1777991010 | 5.56° C | 57% | 1013 hPa | 0 mm | 0 m/s | - | - |
| 1777990420 | 5° C | 60% | 1013 hPa | 0 mm | 0 m/s | - | - |
| 1777989812 | 4.44° C | 62% | 1012.5 hPa | 0 mm | 0 m/s | - | - |
| 1777989214 | 3.33° C | 64% | 1012.7 hPa | 0 mm | 0 m/s | - | - |
| 1777988604 | 2.78° C | 67% | 1012.7 hPa | 0 mm | 0 m/s | - | - |
| 1777988020 | 2.22° C | 69% | 1012.3 hPa | 0 mm | 0 m/s | - | - |
| 1777987401 | 1.67° C | 70% | 1012.2 hPa | 0 mm | 0 m/s | - | - |
| 1777986811 | 1.11° C | 71% | 1012.2 hPa | 0 mm | 0 m/s | - | - |
| 1777986224 | 1.11° C | 70% | 1012.4 hPa | 0 mm | 0 m/s | - | - |
| 1777985604 | 1.11° C | 70% | 1012.4 hPa | 0 mm | 0 m/s | - | - |
| 1777985014 | 1.11° C | 69% | 1012.4 hPa | 0 mm | 0 m/s | - | - |
| 1777984411 | 1.67° C | 68% | 1011.8 hPa | 0 mm | 0 m/s | - | - |
* Rain since midnight (hover to see other rain measurements)
** Current wind speed in m/s (hover to see current wind gust speed)